Time;durP1;ratioP1;P1;durP2;ratioP2;P2;SDS_P1;SDS_P2;PMS_P1;PMS_P2;Temp;Humidity;BMP_temperature;BMP_pressure;BME280_temperature;BME280_humidity;BME280_pressure;Samples;Min_cycle;Max_cycle;Signal;HPM_P1;HPM_P2
2023/10/30 00:00:28;;;;;;;6.43;4.10;;;;;;;;;;4898236;29;20682;-66
2023/10/30 00:03:15;;;;;;;6.40;3.97;;;;;;;;;;4898072;29;20716;-65
2023/10/30 00:05:42;;;;;;;6.65;3.97;;;;;;;;;;4896919;29;20240;-64
2023/10/30 00:08:09;;;;;;;10.63;5.65;;;;;;;;;;4898210;29;20202;-62
2023/10/30 00:10:37;;;;;;;9.13;4.63;;;;;;;;;;4898202;29;20212;-66
2023/10/30 00:13:04;;;;;;;6.05;3.95;;;;;;;;;;4897993;29;20667;-63
2023/10/30 00:15:31;;;;;;;7.95;4.43;;;;;;;;;;4897940;29;20206;-66
2023/10/30 00:17:58;;;;;;;10.70;4.63;;;;;;;;;;4897499;29;20609;-66
2023/10/30 00:20:26;;;;;;;8.82;4.53;;;;;;;;;;4897756;29;20210;-63
2023/10/30 00:22:53;;;;;;;8.43;4.47;;;;;;;;;;4897728;29;20233;-64
2023/10/30 00:25:21;;;;;;;11.15;5.32;;;;;;;;;;4897747;29;20217;-64
2023/10/30 00:27:48;;;;;;;17.60;7.65;;;;;;;;;;4897780;29;20276;-64
2023/10/30 00:30:15;;;;;;;7.53;3.45;;;;;;;;;;4897641;29;20675;-64
2023/10/30 00:32:43;;;;;;;7.18;4.13;;;;;;;;;;4897873;29;20236;-66
2023/10/30 00:35:10;;;;;;;6.43;3.95;;;;;;;;;;4897794;29;20446;-67
2023/10/30 00:37:37;;;;;;;9.10;4.53;;;;;;;;;;4896393;29;20687;-66
2023/10/30 00:40:06;;;;;;;9.50;5.15;;;;;;;;;;4896599;29;20209;-66
2023/10/30 00:42:33;;;;;;;7.18;4.40;;;;;;;;;;4897501;29;20300;-65
2023/10/30 00:45:04;;;;;;;13.70;8.10;;;;;;;;;;4897420;29;20217;-65
2023/10/30 00:47:31;;;;;;;6.88;4.00;;;;;;;;;;4896165;29;20205;-64
2023/10/30 00:49:58;;;;;;;8.57;4.40;;;;;;;;;;4897222;29;20261;-63
2023/10/30 00:52:25;;;;;;;8.25;5.15;;;;;;;;;;4897379;29;20216;-63
2023/10/30 00:54:54;;;;;;;8.32;4.45;;;;;;;;;;4896062;29;20240;-64
2023/10/30 00:57:21;;;;;;;10.60;4.55;;;;;;;;;;4896252;29;20205;-65
2023/10/30 00:59:48;;;;;;;6.38;4.15;;;;;;;;;;4897085;29;20265;-65
2023/10/30 01:02:16;;;;;;;15.55;8.43;;;;;;;;;;4897077;29;20577;-65
2023/10/30 01:04:43;;;;;;;14.80;5.78;;;;;;;;;;4896086;29;20213;-67
2023/10/30 01:07:11;;;;;;;20.05;6.63;;;;;;;;;;4897257;29;20205;-67
2023/10/30 01:09:38;;;;;;;10.85;5.22;;;;;;;;;;4897060;29;20205;-64
2023/10/30 01:12:06;;;;;;;8.43;4.60;;;;;;;;;;4896996;29;20236;-63
2023/10/30 01:14:34;;;;;;;10.10;5.05;;;;;;;;;;4896005;29;20220;-67
2023/10/30 01:17:01;;;;;;;11.48;4.60;;;;;;;;;;4897053;29;20209;-66
2023/10/30 01:19:28;;;;;;;83.28;74.60;;;;;;;;;;4896999;29;20213;-63
2023/10/30 01:21:55;;;;;;;42.53;38.33;;;;;;;;;;4896791;29;20209;-62
2023/10/30 01:24:23;;;;;;;42.20;27.70;;;;;;;;;;4896850;29;20205;-63
2023/10/30 01:26:50;;;;;;;22.88;20.48;;;;;;;;;;4895499;29;20205;-64
2023/10/30 01:29:18;;;;;;;12.75;7.45;;;;;;;;;;4894833;29;20217;-65
2023/10/30 01:31:45;;;;;;;9.27;6.53;;;;;;;;;;4894556;29;20300;-65
2023/10/30 01:34:12;;;;;;;13.80;6.25;;;;;;;;;;4896986;29;20209;-63
2023/10/30 01:36:39;;;;;;;10.45;6.65;;;;;;;;;;4896712;29;20202;-64
2023/10/30 01:39:07;;;;;;;15.00;7.53;;;;;;;;;;4895522;29;20209;-63
2023/10/30 01:41:34;;;;;;;13.98;5.15;;;;;;;;;;4896714;29;20206;-64
2023/10/30 01:44:01;;;;;;;15.48;6.35;;;;;;;;;;4896924;29;20240;-64
2023/10/30 01:46:29;;;;;;;14.02;6.93;;;;;;;;;;4896659;29;20304;-63
2023/10/30 01:48:57;;;;;;;12.65;6.40;;;;;;;;;;4896612;29;20212;-61
2023/10/30 01:51:24;;;;;;;9.88;5.10;;;;;;;;;;4895344;29;20272;-64
2023/10/30 01:53:52;;;;;;;9.55;4.72;;;;;;;;;;4895334;29;20233;-63
2023/10/30 01:56:20;;;;;;;15.50;8.48;;;;;;;;;;4896749;29;20213;-65
2023/10/30 01:58:47;;;;;;;10.38;5.32;;;;;;;;;;4895545;29;20217;-64
2023/10/30 02:01:14;;;;;;;11.60;5.93;;;;;;;;;;4895162;29;20681;-62
2023/10/30 02:03:41;;;;;;;11.48;4.97;;;;;;;;;;4896299;29;20237;-64
2023/10/30 02:06:09;;;;;;;10.30;4.93;;;;;;;;;;4896377;29;20209;-63
2023/10/30 02:08:36;;;;;;;8.27;4.68;;;;;;;;;;4895288;29;20675;-64
2023/10/30 02:11:03;;;;;;;9.57;4.50;;;;;;;;;;4896214;29;20213;-64
2023/10/30 02:13:30;;;;;;;11.32;6.70;;;;;;;;;;4895495;29;20216;-66
2023/10/30 02:15:58;;;;;;;10.45;5.10;;;;;;;;;;4896371;29;20208;-65
2023/10/30 02:18:25;;;;;;;9.32;4.50;;;;;;;;;;4896333;29;20252;-65
2023/10/30 02:20:52;;;;;;;12.60;6.13;;;;;;;;;;4895323;29;20216;-62
2023/10/30 02:23:20;;;;;;;9.38;4.75;;;;;;;;;;4895347;29;20240;-66
2023/10/30 02:25:47;;;;;;;10.73;5.18;;;;;;;;;;4895095;29;20564;-65
2023/10/30 02:28:16;;;;;;;8.85;4.28;;;;;;;;;;4895126;29;20213;-65
2023/10/30 02:30:43;;;;;;;9.95;4.93;;;;;;;;;;4896459;29;20205;-64
2023/10/30 02:33:10;;;;;;;8.38;4.45;;;;;;;;;;4895127;29;20216;-61
2023/10/30 02:35:37;;;;;;;10.93;4.85;;;;;;;;;;4896524;29;20209;-65
2023/10/30 02:38:04;;;;;;;6.88;4.07;;;;;;;;;;4896466;29;20205;-64
2023/10/30 02:40:32;;;;;;;8.30;4.22;;;;;;;;;;4898506;29;20204;-64
2023/10/30 02:43:00;;;;;;;183.15;75.95;;;;;;;;;;4899705;29;20237;-63
2023/10/30 02:45:27;;;;;;;37.67;12.50;;;;;;;;;;4899817;29;20210;-62
2023/10/30 02:47:54;;;;;;;22.05;8.05;;;;;;;;;;4898527;29;20206;-63
2023/10/30 02:50:21;;;;;;;16.73;6.88;;;;;;;;;;4898383;29;20225;-64
2023/10/30 02:52:50;;;;;;;17.33;6.18;;;;;;;;;;4899499;29;20209;-65
2023/10/30 02:55:17;;;;;;;11.48;5.50;;;;;;;;;;4898288;29;20957;-64
2023/10/30 02:57:44;;;;;;;11.02;5.20;;;;;;;;;;4899370;29;20213;-64
2023/10/30 03:00:11;;;;;;;10.85;5.22;;;;;;;;;;4898185;29;20209;-65
2023/10/30 03:02:39;;;;;;;14.60;8.02;;;;;;;;;;4898069;29;20233;-64
2023/10/30 03:05:07;;;;;;;11.75;5.32;;;;;;;;;;4899799;29;20213;-65
2023/10/30 03:07:34;;;;;;;9.98;4.78;;;;;;;;;;4899533;29;20213;-65
2023/10/30 03:10:02;;;;;;;11.90;4.93;;;;;;;;;;4899121;29;20454;-60
2023/10/30 03:12:29;;;;;;;8.43;4.40;;;;;;;;;;4899100;29;20630;-64
2023/10/30 03:14:56;;;;;;;9.63;4.28;;;;;;;;;;4899051;29;20216;-66
2023/10/30 03:17:23;;;;;;;7.82;4.00;;;;;;;;;;4899101;29;20209;-62
2023/10/30 03:19:51;;;;;;;15.63;6.97;;;;;;;;;;4899060;29;20662;-67
2023/10/30 03:22:18;;;;;;;9.35;4.00;;;;;;;;;;4898796;29;20686;-64
2023/10/30 03:24:46;;;;;;;10.25;4.45;;;;;;;;;;4897867;29;20666;-64
2023/10/30 03:27:13;;;;;;;8.88;4.18;;;;;;;;;;4898815;29;20213;-63
2023/10/30 03:29:40;;;;;;;10.38;4.85;;;;;;;;;;4898843;29;20292;-62
2023/10/30 03:32:07;;;;;;;11.10;4.47;;;;;;;;;;4899153;29;20237;-66
2023/10/30 03:34:35;;;;;;;9.65;4.28;;;;;;;;;;4899130;29;20209;-65
2023/10/30 03:37:02;;;;;;;14.40;4.63;;;;;;;;;;4899298;29;20202;-64
2023/10/30 03:39:31;;;;;;;7.53;4.20;;;;;;;;;;4898841;29;20636;-65
2023/10/30 03:41:59;;;;;;;12.70;4.45;;;;;;;;;;4898590;29;20242;-66
2023/10/30 03:44:29;;;;;;;10.23;4.18;;;;;;;;;;4897518;29;20229;-66
2023/10/30 03:46:56;;;;;;;9.02;4.30;;;;;;;;;;4898883;29;20209;-63
2023/10/30 03:49:23;;;;;;;8.90;4.50;;;;;;;;;;4898525;29;20686;-64
2023/10/30 03:51:51;;;;;;;5.57;3.45;;;;;;;;;;4896473;29;20678;-63
2023/10/30 03:54:18;;;;;;;6.85;3.97;;;;;;;;;;4898604;29;20687;-63
2023/10/30 03:56:45;;;;;;;9.43;3.65;;;;;;;;;;4898197;29;20670;-65
2023/10/30 03:59:12;;;;;;;9.02;4.00;;;;;;;;;;4898615;29;20552;-62
2023/10/30 04:01:39;;;;;;;5.97;3.75;;;;;;;;;;4898267;29;20617;-66
2023/10/30 04:04:07;;;;;;;9.40;3.65;;;;;;;;;;4898201;29;20732;-63
2023/10/30 04:06:35;;;;;;;8.65;4.00;;;;;;;;;;4898096;29;20213;-65
2023/10/30 04:09:06;;;;;;;6.55;3.13;;;;;;;;;;4898714;29;20206;-66
2023/10/30 04:11:34;;;;;;;6.43;3.58;;;;;;;;;;4898001;29;20217;-62
2023/10/30 04:14:01;;;;;;;7.75;3.80;;;;;;;;;;4898356;29;20213;-65
2023/10/30 04:16:29;;;;;;;5.72;3.42;;;;;;;;;;4898186;29;20631;-62
2023/10/30 04:18:57;;;;;;;5.15;3.75;;;;;;;;;;4898170;29;20209;-62
2023/10/30 04:21:24;;;;;;;6.35;3.15;;;;;;;;;;4897889;29;20211;-66
2023/10/30 04:23:51;;;;;;;6.53;3.65;;;;;;;;;;4897633;29;20229;-63
2023/10/30 04:26:19;;;;;;;14.48;5.90;;;;;;;;;;4897721;29;20767;-67
2023/10/30 04:28:46;;;;;;;7.05;4.88;;;;;;;;;;4897935;29;20210;-67
2023/10/30 04:31:14;;;;;;;14.80;4.90;;;;;;;;;;4897505;29;20214;-66
2023/10/30 04:33:41;;;;;;;12.60;4.80;;;;;;;;;;4897512;29;20682;-63
2023/10/30 04:36:08;;;;;;;9.20;3.90;;;;;;;;;;4897495;29;20667;-63
2023/10/30 04:38:36;;;;;;;6.22;3.35;;;;;;;;;;4897561;29;20216;-68
2023/10/30 04:41:04;;;;;;;8.93;3.47;;;;;;;;;;4897488;29;20217;-66
2023/10/30 04:43:32;;;;;;;10.38;4.35;;;;;;;;;;4897380;29;20233;-64
2023/10/30 04:46:00;;;;;;;7.00;3.53;;;;;;;;;;4897489;29;20280;-64
2023/10/30 04:48:30;;;;;;;10.60;3.38;;;;;;;;;;4897251;29;20213;-61
2023/10/30 04:50:57;;;;;;;5.13;3.15;;;;;;;;;;4897413;29;20246;-61
2023/10/30 04:53:25;;;;;;;8.63;3.22;;;;;;;;;;4894897;29;20228;-64
2023/10/30 04:55:52;;;;;;;5.05;3.05;;;;;;;;;;4895834;29;20212;-61
2023/10/30 04:58:19;;;;;;;8.00;3.47;;;;;;;;;;4896929;29;20225;-63
2023/10/30 05:00:46;;;;;;;7.55;3.63;;;;;;;;;;4895393;29;20220;-62
2023/10/30 05:03:13;;;;;;;7.03;3.53;;;;;;;;;;4891769;29;20268;-62
2023/10/30 05:05:41;;;;;;;8.73;3.25;;;;;;;;;;4898943;29;20225;-62
2023/10/30 05:08:08;;;;;;;6.90;3.63;;;;;;;;;;4905080;29;20228;-63
2023/10/30 05:10:35;;;;;;;6.05;3.10;;;;;;;;;;4907780;29;20233;-63
2023/10/30 05:13:02;;;;;;;7.75;3.45;;;;;;;;;;4906358;29;20225;-62
2023/10/30 05:15:29;;;;;;;4.10;2.92;;;;;;;;;;4891611;29;20230;-60
2023/10/30 05:17:56;;;;;;;5.13;3.22;;;;;;;;;;4890533;29;20237;-61
2023/10/30 05:20:24;;;;;;;6.15;2.95;;;;;;;;;;4893824;29;20696;-61
2023/10/30 05:22:51;;;;;;;4.18;2.65;;;;;;;;;;4895717;29;20237;-60
2023/10/30 05:25:20;;;;;;;5.60;3.17;;;;;;;;;;4896736;29;20233;-60
2023/10/30 05:28:03;;;;;;;4.80;3.53;;;;;;;;;;4896463;29;20316;-59
2023/10/30 05:30:31;;;;;;;5.82;3.22;;;;;;;;;;4896204;29;20281;-59
2023/10/30 05:32:58;;;;;;;6.25;3.30;;;;;;;;;;4895062;29;20376;-59
2023/10/30 05:35:25;;;;;;;5.38;2.97;;;;;;;;;;4880903;29;20229;-59
2023/10/30 05:37:53;;;;;;;6.70;3.55;;;;;;;;;;4896203;29;20232;-58
2023/10/30 05:40:21;;;;;;;6.30;2.55;;;;;;;;;;4897422;29;20249;-59
2023/10/30 05:42:49;;;;;;;4.32;2.97;;;;;;;;;;4897211;29;20244;-60
2023/10/30 05:45:16;;;;;;;7.00;3.85;;;;;;;;;;4895600;29;20707;-59
2023/10/30 05:47:43;;;;;;;3.67;2.83;;;;;;;;;;4895114;29;20245;-59
2023/10/30 05:50:11;;;;;;;5.00;3.30;;;;;;;;;;4896064;29;20233;-59
2023/10/30 05:52:38;;;;;;;8.73;3.50;;;;;;;;;;4895849;29;20336;-59
2023/10/30 05:55:08;;;;;;;9.68;2.17;;;;;;;;;;4896039;29;20312;-60
2023/10/30 05:57:37;;;;;;;4.47;2.60;;;;;;;;;;4894222;29;20229;-59
2023/10/30 06:00:06;;;;;;;9.45;2.92;;;;;;;;;;4893534;29;20232;-60
2023/10/30 06:02:33;;;;;;;10.45;2.78;;;;;;;;;;4895476;29;20229;-59
2023/10/30 06:05:00;;;;;;;6.18;2.67;;;;;;;;;;4895587;29;20578;-60
2023/10/30 06:07:27;;;;;;;5.50;3.00;;;;;;;;;;4895354;29;20620;-59
2023/10/30 06:09:55;;;;;;;5.55;2.78;;;;;;;;;;4890508;29;20269;-60
2023/10/30 06:12:22;;;;;;;5.35;3.35;;;;;;;;;;4895308;29;20229;-60
2023/10/30 06:14:50;;;;;;;4.25;2.60;;;;;;;;;;4896287;29;20237;-60
2023/10/30 06:17:17;;;;;;;5.13;2.35;;;;;;;;;;4896317;29;20253;-61
2023/10/30 06:19:44;;;;;;;5.65;2.42;;;;;;;;;;4898108;29;20221;-60
2023/10/30 06:22:11;;;;;;;3.67;2.40;;;;;;;;;;4899010;29;20228;-59
2023/10/30 06:24:39;;;;;;;8.70;2.33;;;;;;;;;;4899016;29;20245;-60
2023/10/30 06:27:06;;;;;;;3.38;2.20;;;;;;;;;;4899455;29;20240;-60
2023/10/30 06:29:34;;;;;;;4.50;2.35;;;;;;;;;;4899547;29;20236;-58
2023/10/30 06:32:02;;;;;;;5.93;2.80;;;;;;;;;;4898901;29;20233;-59
2023/10/30 06:34:37;;;;;;;6.22;2.65;;;;;;;;;;4898903;29;20229;-59
2023/10/30 06:37:05;;;;;;;4.03;2.38;;;;;;;;;;4899388;29;20289;-59
2023/10/30 06:39:33;;;;;;;4.47;2.45;;;;;;;;;;4899010;29;20601;-59
2023/10/30 06:42:00;;;;;;;4.72;2.20;;;;;;;;;;4900058;29;20237;-60
2023/10/30 06:44:27;;;;;;;6.35;2.45;;;;;;;;;;4899164;29;20252;-58
2023/10/30 06:46:56;;;;;;;4.10;2.00;;;;;;;;;;4898628;29;20228;-59
2023/10/30 06:49:24;;;;;;;6.40;2.50;;;;;;;;;;4896474;29;20260;-59
2023/10/30 06:51:51;;;;;;;7.00;2.22;;;;;;;;;;4899413;29;20233;-59
2023/10/30 06:54:19;;;;;;;6.57;2.50;;;;;;;;;;4898497;29;20730;-60
2023/10/30 06:56:46;;;;;;;3.92;1.90;;;;;;;;;;4898827;29;20308;-59
2023/10/30 06:59:14;;;;;;;4.13;1.70;;;;;;;;;;4898557;29;20233;-59
2023/10/30 07:01:46;;;;;;;3.05;2.00;;;;;;;;;;4898871;29;20296;-60
2023/10/30 07:04:14;;;;;;;5.07;1.90;;;;;;;;;;4890406;29;20586;-60
2023/10/30 07:06:43;;;;;;;3.85;1.90;;;;;;;;;;4888180;29;20638;-58
2023/10/30 07:09:12;;;;;;;3.35;2.33;;;;;;;;;;4903002;29;20228;-57
2023/10/30 07:11:42;;;;;;;3.25;1.88;;;;;;;;;;4905117;29;20594;-60
2023/10/30 07:14:10;;;;;;;4.18;2.78;;;;;;;;;;4891021;29;20245;-59
2023/10/30 07:16:37;;;;;;;4.18;2.65;;;;;;;;;;4884903;29;20289;-60
2023/10/30 07:19:15;;;;;;;4.30;2.20;;;;;;;;;;4899300;29;20229;-60
2023/10/30 07:21:42;;;;;;;4.53;2.10;;;;;;;;;;4917674;29;20232;-60
2023/10/30 07:24:13;;;;;;;5.30;2.20;;;;;;;;;;4917226;29;20252;-59
2023/10/30 07:26:40;;;;;;;3.97;2.05;;;;;;;;;;4915980;29;20228;-59
2023/10/30 07:29:07;;;;;;;7.35;1.92;;;;;;;;;;4917178;29;20236;-59
2023/10/30 07:31:34;;;;;;;4.80;2.47;;;;;;;;;;4917114;29;20235;-59
2023/10/30 07:34:02;;;;;;;5.20;2.20;;;;;;;;;;4916854;29;20236;-60
2023/10/30 07:36:29;;;;;;;4.05;2.10;;;;;;;;;;4916936;29;20263;-59
2023/10/30 07:38:56;;;;;;;4.72;2.17;;;;;;;;;;4917191;29;20224;-59
2023/10/30 07:41:23;;;;;;;3.38;1.83;;;;;;;;;;4906709;29;20234;-59
2023/10/30 07:43:50;;;;;;;4.78;2.10;;;;;;;;;;4897990;29;20241;-59
2023/10/30 07:46:17;;;;;;;4.68;2.05;;;;;;;;;;4897858;29;20316;-60
2023/10/30 07:48:45;;;;;;;7.40;2.58;;;;;;;;;;4897934;29;20229;-59
2023/10/30 07:51:12;;;;;;;4.25;1.70;;;;;;;;;;4898371;29;20293;-60
2023/10/30 07:53:39;;;;;;;2.75;1.50;;;;;;;;;;4898087;29;20707;-59
2023/10/30 07:56:06;;;;;;;3.53;1.60;;;;;;;;;;4897761;29;20245;-58
2023/10/30 07:58:34;;;;;;;3.95;2.17;;;;;;;;;;4897833;29;20233;-59
2023/10/30 08:01:01;;;;;;;4.53;1.88;;;;;;;;;;4897847;29;20235;-59
2023/10/30 08:03:28;;;;;;;2.60;1.92;;;;;;;;;;4897454;29;20241;-60
2023/10/30 08:05:59;;;;;;;3.60;1.73;;;;;;;;;;4897424;29;20763;-58
2023/10/30 08:08:28;;;;;;;4.35;1.73;;;;;;;;;;4895434;29;20591;-59
2023/10/30 08:10:56;;;;;;;4.00;1.63;;;;;;;;;;4896645;29;20230;-59
2023/10/30 08:13:23;;;;;;;7.40;1.95;;;;;;;;;;4897829;29;20236;-60
2023/10/30 08:15:51;;;;;;;6.00;1.67;;;;;;;;;;4897807;29;20240;-59
2023/10/30 08:18:19;;;;;;;5.70;1.95;;;;;;;;;;4897336;29;20229;-60
2023/10/30 08:20:46;;;;;;;3.35;1.70;;;;;;;;;;4897490;29;20236;-59
2023/10/30 08:23:15;;;;;;;3.10;2.08;;;;;;;;;;4897419;29;20236;-60
2023/10/30 08:25:43;;;;;;;4.20;1.70;;;;;;;;;;4897205;29;20587;-60
2023/10/30 08:28:10;;;;;;;4.53;1.88;;;;;;;;;;4897246;29;20245;-60
2023/10/30 08:30:37;;;;;;;3.10;1.90;;;;;;;;;;4897206;29;20236;-60
2023/10/30 08:33:05;;;;;;;2.85;1.48;;;;;;;;;;4896926;29;20264;-59
2023/10/30 08:35:32;;;;;;;2.72;1.40;;;;;;;;;;4897035;29;20226;-59
2023/10/30 08:38:00;;;;;;;2.00;1.35;;;;;;;;;;4897262;29;20313;-60
2023/10/30 08:40:27;;;;;;;4.30;1.55;;;;;;;;;;4896849;29;20260;-60
2023/10/30 08:42:55;;;;;;;4.22;1.58;;;;;;;;;;4895566;29;20248;-60
2023/10/30 08:45:22;;;;;;;9.77;1.55;;;;;;;;;;4896939;29;20677;-59
2023/10/30 08:47:49;;;;;;;2.70;1.30;;;;;;;;;;4894644;29;20240;-60
2023/10/30 08:50:20;;;;;;;3.88;1.50;;;;;;;;;;4897408;29;20711;-60
2023/10/30 08:52:51;;;;;;;4.03;1.70;;;;;;;;;;4897296;29;20209;-58
2023/10/30 08:55:19;;;;;;;4.97;1.40;;;;;;;;;;4897406;29;20824;-59
2023/10/30 08:57:46;;;;;;;2.95;1.42;;;;;;;;;;4897324;29;20297;-59
2023/10/30 09:00:13;;;;;;;2.50;1.73;;;;;;;;;;4897475;29;20220;-59
2023/10/30 09:02:42;;;;;;;5.45;1.58;;;;;;;;;;4896998;29;20504;-60
2023/10/30 09:05:10;;;;;;;3.30;1.45;;;;;;;;;;4897500;29;20232;-59
2023/10/30 09:07:38;;;;;;;2.38;1.30;;;;;;;;;;4896957;29;20206;-60
2023/10/30 09:10:06;;;;;;;2.53;1.33;;;;;;;;;;4897390;29;20232;-60
2023/10/30 09:12:34;;;;;;;3.67;1.25;;;;;;;;;;4897013;29;20205;-59
2023/10/30 09:15:01;;;;;;;3.15;1.60;;;;;;;;;;4897082;29;20219;-58
2023/10/30 09:17:28;;;;;;;4.03;1.55;;;;;;;;;;4897168;29;20209;-60
2023/10/30 09:19:56;;;;;;;2.42;1.42;;;;;;;;;;4896783;29;20206;-59
2023/10/30 09:22:23;;;;;;;3.40;1.23;;;;;;;;;;4896764;29;20810;-60
2023/10/30 09:24:51;;;;;;;4.32;1.50;;;;;;;;;;4896812;29;20237;-59
2023/10/30 09:27:18;;;;;;;1.80;1.38;;;;;;;;;;4897138;29;20603;-60
2023/10/30 09:29:45;;;;;;;3.60;1.10;;;;;;;;;;4896881;29;20209;-59
2023/10/30 09:32:14;;;;;;;3.63;1.52;;;;;;;;;;4897115;29;20213;-60
2023/10/30 09:34:41;;;;;;;2.35;1.27;;;;;;;;;;4897186;29;20209;-60
2023/10/30 09:37:08;;;;;;;1.95;1.20;;;;;;;;;;4897017;29;20228;-61
2023/10/30 09:39:35;;;;;;;3.72;0.93;;;;;;;;;;4897358;29;20216;-60
2023/10/30 09:42:07;;;;;;;4.03;1.58;;;;;;;;;;4896687;29;20209;-60
2023/10/30 09:44:34;;;;;;;3.08;1.20;;;;;;;;;;4898286;29;20256;-60
2023/10/30 09:47:02;;;;;;;3.42;1.67;;;;;;;;;;4899111;29;20213;-58
2023/10/30 09:49:29;;;;;;;2.60;1.27;;;;;;;;;;4896304;29;20210;-59
2023/10/30 09:51:59;;;;;;;3.28;1.45;;;;;;;;;;4895860;29;20534;-60
2023/10/30 09:54:27;;;;;;;5.75;1.40;;;;;;;;;;4895339;29;20333;-60
2023/10/30 09:56:55;;;;;;;2.70;1.20;;;;;;;;;;4896351;29;20213;-59
2023/10/30 09:59:23;;;;;;;3.58;1.60;;;;;;;;;;4895379;29;20771;-60
2023/10/30 10:01:50;;;;;;;2.15;1.08;;;;;;;;;;4898157;29;20216;-59
2023/10/30 10:04:18;;;;;;;2.63;1.00;;;;;;;;;;4897452;29;20671;-60
2023/10/30 10:06:47;;;;;;;2.90;1.20;;;;;;;;;;4896970;29;20264;-60
2023/10/30 10:09:15;;;;;;;2.47;1.30;;;;;;;;;;4895339;29;20209;-60
2023/10/30 10:11:43;;;;;;;2.88;1.02;;;;;;;;;;4896700;29;20213;-61
2023/10/30 10:14:11;;;;;;;2.22;1.17;;;;;;;;;;4896336;29;20219;-60
2023/10/30 10:16:39;;;;;;;1.40;0.95;;;;;;;;;;4897726;29;20564;-58
2023/10/30 10:19:20;;;;;;;3.03;1.33;;;;;;;;;;4896501;29;20206;-59
2023/10/30 10:21:49;;;;;;;4.28;1.40;;;;;;;;;;4897877;29;20217;-60
2023/10/30 10:24:27;;;;;;;2.45;1.17;;;;;;;;;;4896134;29;20209;-59
2023/10/30 10:27:06;;;;;;;4.40;1.25;;;;;;;;;;4896192;29;20217;-59
2023/10/30 10:29:33;;;;;;;2.15;1.30;;;;;;;;;;4896385;29;20209;-60
2023/10/30 10:32:01;;;;;;;2.22;1.17;;;;;;;;;;4896221;29;20209;-58
2023/10/30 10:34:33;;;;;;;2.10;1.10;;;;;;;;;;4896161;29;20656;-58
2023/10/30 10:37:01;;;;;;;2.88;1.23;;;;;;;;;;4896481;29;20220;-60
2023/10/30 10:39:50;;;;;;;2.05;1.10;;;;;;;;;;4895141;29;20625;-59
2023/10/30 10:42:19;;;;;;;2.83;0.90;;;;;;;;;;4896110;29;20219;-59
2023/10/30 10:44:54;;;;;;;2.35;1.30;;;;;;;;;;4896460;29;20316;-60
2023/10/30 10:47:22;;;;;;;3.58;1.30;;;;;;;;;;4896011;29;20308;-58
2023/10/30 10:49:50;;;;;;;3.63;1.20;;;;;;;;;;4896073;29;20206;-58
2023/10/30 10:52:19;;;;;;;1.98;1.40;;;;;;;;;;4896150;29;20228;-59
2023/10/30 10:55:04;;;;;;;2.92;1.30;;;;;;;;;;4896028;29;20229;-60
2023/10/30 10:57:39;;;;;;;3.97;1.40;;;;;;;;;;4894834;29;20205;-59
2023/10/30 11:00:09;;;;;;;4.68;1.38;;;;;;;;;;4896701;29;20201;-59
2023/10/30 11:02:38;;;;;;;3.20;1.20;;;;;;;;;;4899662;29;20210;-60
2023/10/30 11:05:06;;;;;;;4.72;1.40;;;;;;;;;;4899608;29;20232;-60
2023/10/30 11:07:42;;;;;;;3.58;1.20;;;;;;;;;;4899230;29;20217;-59
2023/10/30 11:10:15;;;;;;;1.92;1.00;;;;;;;;;;4898163;29;20296;-59
2023/10/30 11:13:14;;;;;;;1.83;1.10;;;;;;;;;;4898633;29;20227;-60
2023/10/30 11:15:56;;;;;;;2.72;1.20;;;;;;;;;;4896888;29;20287;-57
2023/10/30 11:18:27;;;;;;;2.53;1.25;;;;;;;;;;4897927;29;20209;-59
2023/10/30 11:21:09;;;;;;;3.47;1.38;;;;;;;;;;4899414;29;20217;-59
2023/10/30 11:23:46;;;;;;;3.78;1.40;;;;;;;;;;4898968;29;20698;-59
2023/10/30 11:26:38;;;;;;;2.95;1.50;;;;;;;;;;4898951;29;20256;-59
2023/10/30 11:29:21;;;;;;;6.55;1.55;;;;;;;;;;4898827;29;20213;-60
2023/10/30 11:32:00;;;;;;;4.70;1.38;;;;;;;;;;4899021;29;20284;-60
2023/10/30 11:34:35;;;;;;;2.60;1.10;;;;;;;;;;4899009;29;20210;-58
2023/10/30 11:37:12;;;;;;;1.83;1.10;;;;;;;;;;4897707;29;20219;-60
2023/10/30 11:39:41;;;;;;;5.05;1.00;;;;;;;;;;4899209;29;20205;-60
2023/10/30 11:42:30;;;;;;;3.28;1.17;;;;;;;;;;4898776;29;20265;-59
2023/10/30 11:45:21;;;;;;;3.40;1.20;;;;;;;;;;4898692;29;20284;-58
2023/10/30 11:48:09;;;;;;;1.60;1.10;;;;;;;;;;4898489;29;20237;-58
2023/10/30 11:50:42;;;;;;;2.55;1.30;;;;;;;;;;4898781;29;20211;-59
2023/10/30 11:53:12;;;;;;;2.55;1.40;;;;;;;;;;4898593;29;20270;-60
2023/10/30 11:55:40;;;;;;;2.38;1.35;;;;;;;;;;4897327;29;20786;-58
2023/10/30 11:58:09;;;;;;;4.38;1.50;;;;;;;;;;4898666;29;20205;-59
2023/10/30 12:00:47;;;;;;;1.58;1.00;;;;;;;;;;4898645;29;20205;-59
2023/10/30 12:03:15;;;;;;;3.05;1.10;;;;;;;;;;4898381;29;20231;-59
2023/10/30 12:05:43;;;;;;;2.00;1.23;;;;;;;;;;4898223;29;20241;-60
2023/10/30 12:08:13;;;;;;;2.45;1.25;;;;;;;;;;4898614;29;20227;-60
2023/10/30 12:10:40;;;;;;;3.20;1.20;;;;;;;;;;4898195;29;20205;-58
2023/10/30 12:13:10;;;;;;;4.03;1.70;;;;;;;;;;4897396;29;20626;-59
2023/10/30 12:15:38;;;;;;;5.97;1.92;;;;;;;;;;4898436;29;20197;-59
2023/10/30 12:18:05;;;;;;;3.67;1.35;;;;;;;;;;4897955;29;20762;-59
2023/10/30 12:20:32;;;;;;;2.80;1.40;;;;;;;;;;4897863;29;20232;-60
2023/10/30 12:22:59;;;;;;;3.67;1.40;;;;;;;;;;4897929;29;20205;-59
2023/10/30 12:25:27;;;;;;;8.55;2.25;;;;;;;;;;4897735;29;20229;-60
2023/10/30 12:28:01;;;;;;;12.63;3.55;;;;;;;;;;4897795;29;20220;-60
2023/10/30 12:30:35;;;;;;;9.27;3.50;;;;;;;;;;4897939;29;20216;-60
2023/10/30 12:33:03;;;;;;;12.80;4.25;;;;;;;;;;4897763;29;20213;-59
2023/10/30 12:35:30;;;;;;;17.73;6.18;;;;;;;;;;4897563;29;20644;-59
2023/10/30 12:37:59;;;;;;;14.93;4.53;;;;;;;;;;4897561;29;20320;-60
2023/10/30 12:40:28;;;;;;;14.10;5.00;;;;;;;;;;4897396;29;20201;-59
2023/10/30 12:42:55;;;;;;;12.98;3.10;;;;;;;;;;4896021;29;20198;-58
2023/10/30 12:46:08;;;;;;;3.85;1.55;;;;;;;;;;4896959;29;20651;-58
2023/10/30 12:48:36;;;;;;;6.30;2.13;;;;;;;;;;4897311;29;20233;-59
2023/10/30 12:51:03;;;;;;;4.30;1.33;;;;;;;;;;4895933;29;20201;-58
2023/10/30 12:53:31;;;;;;;3.30;1.45;;;;;;;;;;4896999;29;20209;-60
2023/10/30 12:55:58;;;;;;;2.58;1.15;;;;;;;;;;4897363;29;20703;-60
2023/10/30 12:58:27;;;;;;;3.97;1.50;;;;;;;;;;4894673;29;20209;-58
2023/10/30 13:00:58;;;;;;;2.47;1.45;;;;;;;;;;4897053;29;20201;-59
2023/10/30 13:03:28;;;;;;;5.50;1.55;;;;;;;;;;4894614;29;20719;-60
2023/10/30 13:05:57;;;;;;;3.45;1.33;;;;;;;;;;4896916;29;20627;-60
2023/10/30 13:08:24;;;;;;;10.13;1.80;;;;;;;;;;4896526;29;20213;-59
2023/10/30 13:10:51;;;;;;;3.28;1.40;;;;;;;;;;4896780;29;20586;-58
2023/10/30 13:13:18;;;;;;;4.10;1.80;;;;;;;;;;4896588;29;20205;-60
2023/10/30 13:15:46;;;;;;;3.25;1.40;;;;;;;;;;4896533;29;20194;-60
2023/10/30 13:18:14;;;;;;;2.83;1.55;;;;;;;;;;4896138;29;20208;-58
2023/10/30 13:20:41;;;;;;;4.10;2.22;;;;;;;;;;4896863;29;20206;-60
2023/10/30 13:23:08;;;;;;;7.50;2.55;;;;;;;;;;4896593;29;20212;-60
2023/10/30 13:25:35;;;;;;;9.68;2.88;;;;;;;;;;4894904;29;20229;-60
2023/10/30 13:28:02;;;;;;;4.35;2.00;;;;;;;;;;4891804;29;20249;-59
2023/10/30 13:30:30;;;;;;;6.95;1.50;;;;;;;;;;4895929;29;20220;-57
2023/10/30 13:32:57;;;;;;;5.18;1.38;;;;;;;;;;4896017;29;20261;-60
2023/10/30 13:35:25;;;;;;;2.97;1.50;;;;;;;;;;4897916;29;20221;-60
2023/10/30 13:37:52;;;;;;;4.03;1.60;;;;;;;;;;4898174;29;20699;-58
2023/10/30 13:40:19;;;;;;;8.85;1.42;;;;;;;;;;4896229;29;20590;-60
2023/10/30 13:42:46;;;;;;;5.82;1.80;;;;;;;;;;4891397;29;20233;-60
2023/10/30 13:45:14;;;;;;;3.58;1.70;;;;;;;;;;4895945;29;20237;-60
2023/10/30 13:47:41;;;;;;;2.72;1.33;;;;;;;;;;4896138;29;20602;-60
2023/10/30 13:50:09;;;;;;;4.40;1.52;;;;;;;;;;4895937;29;20229;-59
2023/10/30 13:52:36;;;;;;;2.35;1.42;;;;;;;;;;4896121;29;20714;-59
2023/10/30 13:55:04;;;;;;;3.95;1.40;;;;;;;;;;4895983;29;20889;-58
2023/10/30 13:57:31;;;;;;;3.85;1.45;;;;;;;;;;4895283;29;20229;-58
2023/10/30 13:59:59;;;;;;;4.80;1.80;;;;;;;;;;4895153;29;20217;-59
2023/10/30 14:02:27;;;;;;;2.33;1.55;;;;;;;;;;4895115;29;20718;-60
2023/10/30 14:04:54;;;;;;;3.40;1.52;;;;;;;;;;4894916;29;20229;-59
2023/10/30 14:07:23;;;;;;;4.28;1.42;;;;;;;;;;4895521;29;20714;-59
2023/10/30 14:09:50;;;;;;;3.58;1.52;;;;;;;;;;4893996;29;20221;-60
2023/10/30 14:12:18;;;;;;;4.68;1.45;;;;;;;;;;4894728;29;20819;-60
2023/10/30 14:14:45;;;;;;;5.25;1.65;;;;;;;;;;4895228;29;20232;-58
2023/10/30 14:17:13;;;;;;;2.63;1.30;;;;;;;;;;4895420;29;20225;-59
2023/10/30 14:19:40;;;;;;;4.30;1.38;;;;;;;;;;4892791;29;20228;-59
2023/10/30 14:22:07;;;;;;;4.03;1.70;;;;;;;;;;4895307;29;20225;-59
2023/10/30 14:24:34;;;;;;;4.35;1.52;;;;;;;;;;4895229;29;20265;-60
2023/10/30 14:27:02;;;;;;;3.25;1.52;;;;;;;;;;4894313;29;20233;-59
2023/10/30 14:29:29;;;;;;;3.03;1.90;;;;;;;;;;4895358;29;20289;-60
2023/10/30 14:31:56;;;;;;;4.50;1.83;;;;;;;;;;4895038;29;20842;-60
2023/10/30 14:34:23;;;;;;;5.60;1.75;;;;;;;;;;4894627;29;20241;-60
2023/10/30 14:36:51;;;;;;;6.40;2.20;;;;;;;;;;4897917;29;20236;-59
2023/10/30 14:39:18;;;;;;;6.68;2.45;;;;;;;;;;4896554;29;20237;-59
2023/10/30 14:41:49;;;;;;;7.50;2.03;;;;;;;;;;4898746;29;20273;-59
2023/10/30 14:44:17;;;;;;;3.63;1.58;;;;;;;;;;4897867;29;20235;-60
2023/10/30 14:46:44;;;;;;;2.72;1.60;;;;;;;;;;4899005;29;20244;-60
2023/10/30 14:49:11;;;;;;;2.83;1.58;;;;;;;;;;4899000;29;20494;-60